Lamy, New Mexico
Current Conditions -  °F | °C
As of 3:53 AM on Tuesday 21 Oct 2014 (Local Time) from KSAF Reporting Station
Overcast Overcast  
Wind Chill: 47°   Ceiling: 8000
Heat Index: 49°   Visibility: 10mi
Dew Point: 45°   Wind: 6mph
Humidity: 86%   Direction: 130°SE
Pressure: 30.19"   Gusts: NA
Location:  35.48°N, 105.88°W
Report Text: KSAF 210953Z AUTO 13005KT 10SM OVC080 09/07 A3019 RMK AO2 SLP148 T00940072
Loading
Personal Weather Stations






























Interactive Weather Map
Tropical Storm Tracking
New forecast layout! Learn more

10-Day Weather Forecast

Advertisements
Track Severe Weather on mobile